This is the latest recevied weather packets stored in our database for station/object N0FDH. If no packets are shown the sender has not sent any weather packets the latest 1 day(s).
| Time | Temp. | Humidity | Pressure | Rain* | Wind** | Luminosity | Snow |
|---|---|---|---|---|---|---|---|
| 1836274696 | 18.89° C | 95% | 1016.8 hPa | 0 mm | 0 m/s | 0 W/m² | - |
| 1836274549 | 18.89° C | 95% | 1016.7 hPa | 0 mm | 0.45 m/s, 123° | 0 W/m² | - |
| 1836274394 | 18.89° C | 95% | 1016.9 hPa | 0 mm | 0 m/s | 0 W/m² | - |
| 1836274247 | 18.89° C | 95% | 1016.7 hPa | 0 mm | 0 m/s | 0 W/m² | - |
| 1836274092 | 18.89° C | 95% | 1016.8 hPa | 0 mm | 0 m/s | 0 W/m² | - |
| 1778048632 | 1.67° C | 65% | 1012.8 hPa | 0 mm | 0.45 m/s, 317° | 0 W/m² | - |
| 1778048328 | 1.67° C | 63% | 1012.9 hPa | 0 mm | 0.89 m/s, 310° | 0 W/m² | - |
| 1778048025 | 1.67° C | 65% | 1012.8 hPa | 0 mm | 0.89 m/s, 327° | 0 W/m² | - |
| 1778047723 | 1.67° C | 65% | 1013 hPa | 0 mm | 0.89 m/s, 327° | 0 W/m² | - |
| 1778047421 | 1.67° C | 62% | 1012.7 hPa | 0 mm | 0.89 m/s, 334° | 0 W/m² | - |
| 1778047117 | 1.67° C | 62% | 1012.7 hPa | 0 mm | 0.89 m/s, 350° | 0 W/m² | - |
| 1778046814 | 1.67° C | 65% | 1012.8 hPa | 0 mm | 0.89 m/s, 316° | 0 W/m² | - |
| 1778046511 | 1.67° C | 63% | 1012.7 hPa | 0 mm | 1.34 m/s, 305° | 0 W/m² | - |
| 1778046208 | 1.67° C | 62% | 1012.8 hPa | 0 mm | 0.89 m/s, 278° | 0 W/m² | - |
| 1778045904 | 1.67° C | 62% | 1012.6 hPa | 0 mm | 1.34 m/s, 275° | 0 W/m² | - |
| 1778045603 | 2.22° C | 63% | 1012.8 hPa | 0 mm | 0.89 m/s, 273° | 0 W/m² | - |
| 1778045301 | 2.22° C | 63% | 1012.7 hPa | 0 mm | 0.89 m/s, 270° | 0 W/m² | - |
| 1778044999 | 2.22° C | 62% | 1012.8 hPa | 0 mm | 1.34 m/s, 347° | 0 W/m² | - |
| 1778044697 | 2.22° C | 61% | 1012.6 hPa | 0 mm | 0.89 m/s, 293° | 0 W/m² | - |
| 1778044392 | 2.22° C | 63% | 1012.5 hPa | 0 mm | 0.89 m/s, 325° | 0 W/m² | - |
| 1778044090 | 2.22° C | 62% | 1012.6 hPa | 0 mm | 1.34 m/s, 314° | 0 W/m² | - |
| 1778043788 | 2.22° C | 61% | 1012.6 hPa | 0 mm | 1.34 m/s, 329° | 0 W/m² | - |
| 1778043484 | 2.22° C | 62% | 1012.5 hPa | 0 mm | 0.89 m/s, 332° | 0 W/m² | - |
| 1778043181 | 2.22° C | 58% | 1012.4 hPa | 0 mm | 1.79 m/s, 334° | 0 W/m² | - |
| 1778042878 | 2.78° C | 59% | 1012.4 hPa | 0 mm | 0.89 m/s, 350° | 0 W/m² | - |
* Rain latest hour (hover to see other rain measurements)
** Current wind speed in m/s (hover to see current wind gust speed)